createdAt,value
2022-12-28T00:01:33.578Z,-0.98
2022-12-28T00:04:02.453Z,-1.04
2022-12-28T00:06:29.094Z,-0.98
2022-12-28T00:08:57.024Z,-0.98
2022-12-28T00:11:28.472Z,-1.03
2022-12-28T00:13:59.599Z,-0.99
2022-12-28T00:16:31.613Z,-1.10
2022-12-28T00:19:00.546Z,-1.18
2022-12-28T00:21:27.818Z,-1.31
2022-12-28T00:23:58.233Z,-1.50
2022-12-28T00:26:30.188Z,-1.33
2022-12-28T00:29:03.720Z,-1.26
2022-12-28T00:31:32.064Z,-1.35
2022-12-28T00:33:58.785Z,-1.23
2022-12-28T00:37:09.947Z,-1.15
2022-12-28T00:39:12.258Z,-1.36
2022-12-28T00:41:39.034Z,-1.41
2022-12-28T00:44:05.690Z,-1.48
2022-12-28T00:46:32.521Z,-1.58
2022-12-28T00:48:59.225Z,-1.57
2022-12-28T00:51:26.007Z,-1.61
2022-12-28T00:53:52.818Z,-1.53
2022-12-28T00:56:20.992Z,-1.54
2022-12-28T00:58:47.739Z,-1.68
2022-12-28T01:01:20.561Z,-1.69
2022-12-28T01:03:48.019Z,-1.77
2022-12-28T01:06:17.118Z,-1.76
2022-12-28T01:08:44.400Z,-1.90
2022-12-28T01:11:18.067Z,-1.83
2022-12-28T01:13:44.875Z,-1.76
2022-12-28T01:16:22.537Z,-1.84
2022-12-28T01:18:52.139Z,-1.82
2022-12-28T01:21:22.846Z,-1.76
2022-12-28T01:23:49.850Z,-1.69
2022-12-28T01:26:16.714Z,-1.65
2022-12-28T01:28:43.641Z,-1.66
2022-12-28T01:31:12.936Z,-1.68
2022-12-28T01:33:40.103Z,-1.76
2022-12-28T01:36:08.660Z,-1.87
2022-12-28T01:38:36.433Z,-1.90
2022-12-28T01:41:03.299Z,-1.84
2022-12-28T01:43:39.877Z,-1.80
2022-12-28T01:46:06.873Z,-1.86
2022-12-28T01:48:35.317Z,-1.85
2022-12-28T01:51:02.079Z,-1.92
2022-12-28T01:53:28.829Z,-2.02
2022-12-28T01:55:55.592Z,-1.95
2022-12-28T01:58:26.340Z,-2.03
2022-12-28T02:00:53.169Z,-1.99
2022-12-28T02:03:26.643Z,-2.00
2022-12-28T02:05:57.036Z,-2.02
2022-12-28T02:08:30.238Z,-2.06
2022-12-28T02:10:57.422Z,-2.03
2022-12-28T02:13:24.839Z,-2.00
2022-12-28T02:15:51.600Z,-2.01
2022-12-28T02:18:19.675Z,-2.03
2022-12-28T02:21:08.254Z,-2.14
2022-12-28T02:23:57.366Z,-2.27
2022-12-28T02:26:44.021Z,-2.34
2022-12-28T02:29:53.618Z,-2.49
2022-12-28T02:32:28.177Z,-2.46
2022-12-28T02:35:08.833Z,-2.47
2022-12-28T02:37:49.792Z,-2.51
2022-12-28T02:40:26.920Z,-2.53
2022-12-28T02:42:54.619Z,-2.41
2022-12-28T02:45:49.888Z,-2.53
2022-12-28T02:48:35.409Z,-2.46
2022-12-28T02:51:14.006Z,-2.43
2022-12-28T02:53:48.924Z,-2.27
2022-12-28T02:56:52.991Z,-2.21
2022-12-28T02:59:56.806Z,-2.18
2022-12-28T03:02:34.414Z,-2.10
2022-12-28T03:05:19.513Z,-2.06
2022-12-28T03:08:20.201Z,-2.02
2022-12-28T03:10:50.408Z,-1.97
2022-12-28T03:13:41.097Z,-2.16
2022-12-28T03:16:12.643Z,-2.08
2022-12-28T03:18:59.510Z,-2.08
2022-12-28T03:21:46.446Z,-1.98
2022-12-28T03:24:33.604Z,-2.14
2022-12-28T03:27:21.548Z,-2.15
2022-12-28T03:30:17.138Z,-2.11
2022-12-28T03:32:44.615Z,-2.08
2022-12-28T03:35:11.408Z,-2.03
2022-12-28T03:37:51.989Z,-2.02
2022-12-28T03:40:48.694Z,-1.98
2022-12-28T03:43:40.227Z,-1.88
2022-12-28T03:46:31.248Z,-1.89
2022-12-28T03:49:01.858Z,-1.97
2022-12-28T03:51:30.512Z,-1.83
2022-12-28T03:53:57.280Z,-1.87
2022-12-28T03:56:27.083Z,-1.91
2022-12-28T03:58:54.435Z,-1.95
2022-12-28T04:01:21.764Z,-1.98
2022-12-28T04:03:48.749Z,-1.96
2022-12-28T04:06:17.569Z,-2.02
2022-12-28T04:08:45.209Z,-2.03
2022-12-28T04:11:12.360Z,-1.95
2022-12-28T04:13:39.109Z,-2.01
2022-12-28T04:16:10.947Z,-1.96
2022-12-28T04:18:37.785Z,-1.94
2022-12-28T04:21:04.764Z,-1.91
2022-12-28T04:23:32.274Z,-1.83
2022-12-28T04:26:02.967Z,-2.06
2022-12-28T04:28:30.913Z,-2.15
2022-12-28T04:30:58.870Z,-2.08
2022-12-28T04:33:26.086Z,-2.15
2022-12-28T04:35:53.298Z,-2.15
2022-12-28T04:38:21.278Z,-2.23
2022-12-28T04:40:47.961Z,-2.23
2022-12-28T04:43:14.783Z,-2.16
2022-12-28T04:45:41.455Z,-2.11
2022-12-28T04:48:08.178Z,-2.07
2022-12-28T04:50:37.968Z,-2.20
2022-12-28T04:53:04.669Z,-2.25
2022-12-28T04:55:33.552Z,-2.37
2022-12-28T04:58:00.923Z,-2.49
2022-12-28T05:00:27.770Z,-2.49
2022-12-28T05:02:54.673Z,-2.39
2022-12-28T05:05:21.499Z,-2.33
2022-12-28T05:07:48.218Z,-2.28
2022-12-28T05:10:14.959Z,-2.35
2022-12-28T05:12:41.672Z,-2.43
2022-12-28T05:15:08.850Z,-2.35
2022-12-28T05:17:35.625Z,-2.37
2022-12-28T05:20:03.064Z,-2.52
2022-12-28T05:22:29.745Z,-2.51
2022-12-28T05:24:56.417Z,-2.54
2022-12-28T05:27:23.053Z,-2.44
2022-12-28T05:29:49.689Z,-2.41
2022-12-28T05:32:16.521Z,-2.35
2022-12-28T05:34:43.163Z,-2.34
2022-12-28T05:37:09.839Z,-2.33
2022-12-28T05:39:36.573Z,-2.29
2022-12-28T05:42:03.488Z,-2.25
2022-12-28T05:44:30.879Z,-2.25
2022-12-28T05:46:57.764Z,-2.30
2022-12-28T05:49:24.436Z,-2.31
2022-12-28T05:51:54.596Z,-2.36
2022-12-28T05:54:21.213Z,-2.34
2022-12-28T05:56:51.693Z,-2.38
2022-12-28T05:59:18.314Z,-2.28
2022-12-28T06:01:45.676Z,-2.23
2022-12-28T06:04:16.469Z,-2.08
2022-12-28T06:06:43.595Z,-2.22
2022-12-28T06:09:10.195Z,-2.22
2022-12-28T06:11:37.012Z,-2.19
2022-12-28T06:14:06.068Z,-2.15
2022-12-28T06:16:35.525Z,-2.15
2022-12-28T06:19:10.242Z,-2.20
2022-12-28T06:21:39.641Z,-2.28
2022-12-28T06:24:07.510Z,-2.33
2022-12-28T06:26:35.954Z,-2.42
2022-12-28T06:29:02.883Z,-2.38
2022-12-28T06:31:32.660Z,-2.38
2022-12-28T06:34:00.617Z,-2.33
2022-12-28T06:36:29.707Z,-2.35
2022-12-28T06:38:57.869Z,-2.37
2022-12-28T06:41:25.399Z,-2.25
2022-12-28T06:43:52.767Z,-2.22
2022-12-28T06:46:20.900Z,-2.27
2022-12-28T06:48:47.789Z,-2.27
2022-12-28T06:51:16.658Z,-2.29
2022-12-28T06:53:43.758Z,-2.27
2022-12-28T06:56:16.459Z,-2.39
2022-12-28T06:58:44.273Z,-2.48
2022-12-28T07:01:15.324Z,-2.48
2022-12-28T07:03:43.207Z,-2.33
2022-12-28T07:06:10.604Z,-2.19
2022-12-28T07:08:37.446Z,-2.27
2022-12-28T07:11:06.275Z,-2.19
2022-12-28T07:13:33.594Z,-2.17
2022-12-28T07:16:05.136Z,-2.06
2022-12-28T07:18:32.866Z,-1.98
2022-12-28T07:21:07.619Z,-2.07
2022-12-28T07:23:34.776Z,-2.11
2022-12-28T07:26:09.775Z,-2.12
2022-12-28T07:28:38.778Z,-1.99
2022-12-28T07:31:11.467Z,-1.92
2022-12-28T07:33:39.085Z,-2.04
2022-12-28T07:36:07.713Z,-2.14
2022-12-28T07:38:34.981Z,-2.10
2022-12-28T07:41:03.405Z,-2.11
2022-12-28T07:43:30.693Z,-2.24
2022-12-28T07:46:04.920Z,-2.24
2022-12-28T07:48:32.549Z,-2.05
2022-12-28T07:51:10.556Z,-2.02
2022-12-28T07:53:38.333Z,-1.88
2022-12-28T07:56:05.468Z,-1.84
2022-12-28T07:58:32.537Z,-1.80
2022-12-28T08:01:12.868Z,-1.78
2022-12-28T08:03:41.627Z,-1.87
2022-12-28T08:06:18.936Z,-1.86
2022-12-28T08:08:47.805Z,-1.82
2022-12-28T08:11:17.163Z,-1.76
2022-12-28T08:13:46.230Z,-1.82
2022-12-28T08:16:14.783Z,-1.76
2022-12-28T08:18:42.372Z,-1.70
2022-12-28T08:21:12.612Z,-1.79
2022-12-28T08:23:39.523Z,-1.85
2022-12-28T08:26:08.195Z,-1.79
2022-12-28T08:28:35.464Z,-1.89
2022-12-28T08:31:10.742Z,-1.83
2022-12-28T08:33:37.791Z,-1.76
2022-12-28T08:36:05.993Z,-1.73
2022-12-28T08:38:33.457Z,-1.76
2022-12-28T08:41:01.660Z,-1.57
2022-12-28T08:43:29.637Z,-1.46
2022-12-28T08:46:00.757Z,-1.34
2022-12-28T08:48:28.433Z,-1.30
2022-12-28T08:50:55.623Z,-1.30
2022-12-28T08:53:24.505Z,-1.17
2022-12-28T08:55:51.742Z,-1.06
2022-12-28T08:58:18.989Z,-1.09
2022-12-28T09:00:45.867Z,-1.37
2022-12-28T09:03:12.777Z,-1.36
2022-12-28T09:05:40.072Z,-1.34
2022-12-28T09:08:07.105Z,-1.45
2022-12-28T09:10:33.898Z,-1.25
2022-12-28T09:13:00.639Z,-1.30
2022-12-28T09:15:27.367Z,-1.24
2022-12-28T09:17:54.203Z,-1.23
2022-12-28T09:20:20.920Z,-1.25
2022-12-28T09:22:47.692Z,-1.23
2022-12-28T09:25:14.452Z,-1.08
2022-12-28T09:27:41.406Z,-1.24
2022-12-28T09:30:08.874Z,-1.23
2022-12-28T09:32:35.635Z,-1.18
2022-12-28T09:35:02.400Z,-1.16
2022-12-28T09:37:29.108Z,-0.98
2022-12-28T09:40:01.158Z,-1.06
2022-12-28T09:42:29.474Z,-1.02
2022-12-28T09:45:11.065Z,-1.11
2022-12-28T09:47:46.003Z,-1.06
2022-12-28T09:50:30.172Z,-1.01
2022-12-28T09:53:06.001Z,-1.01
2022-12-28T09:55:40.318Z,-0.92
2022-12-28T09:58:15.157Z,-0.85
2022-12-28T10:00:45.536Z,-1.05
2022-12-28T10:03:19.288Z,-0.67
2022-12-28T10:05:46.351Z,-0.57
2022-12-28T10:08:16.225Z,-0.74
2022-12-28T10:10:48.447Z,-0.68
2022-12-28T10:13:52.877Z,-0.58
2022-12-28T10:16:06.987Z,-0.06
2022-12-28T10:18:39.375Z,0.06
2022-12-28T10:21:06.633Z,-0.28
2022-12-28T10:23:38.309Z,-0.33
2022-12-28T10:26:16.052Z,-0.39
2022-12-28T10:28:54.434Z,-0.52
2022-12-28T10:31:38.691Z,-0.08
2022-12-28T10:34:17.694Z,-0.09
2022-12-28T10:36:44.807Z,-0.16
2022-12-28T10:39:24.039Z,-0.19
2022-12-28T10:41:51.831Z,-0.16
2022-12-28T10:44:40.842Z,-0.22
2022-12-28T10:47:43.624Z,-0.36
2022-12-28T10:50:49.984Z,-0.09
2022-12-28T10:53:31.386Z,-0.16
2022-12-28T10:56:14.548Z,0.12
2022-12-28T10:58:43.883Z,0.38
2022-12-28T11:01:13.744Z,0.54
2022-12-28T11:03:59.895Z,0.69
2022-12-28T11:06:31.629Z,0.47
2022-12-28T11:09:15.527Z,0.55
2022-12-28T11:11:43.952Z,0.71
2022-12-28T11:14:33.265Z,0.51
2022-12-28T11:17:20.186Z,0.53
2022-12-28T11:19:52.263Z,0.90
2022-12-28T11:22:28.553Z,1.83
2022-12-28T11:24:56.408Z,2.38
2022-12-28T11:27:23.949Z,1.71
2022-12-28T11:29:52.959Z,2.06
2022-12-28T11:32:43.585Z,1.66
2022-12-28T11:35:20.642Z,1.87
2022-12-28T11:37:57.073Z,2.13
2022-12-28T11:40:46.393Z,1.53
2022-12-28T11:43:31.200Z,1.57
2022-12-28T11:45:59.647Z,1.57
2022-12-28T11:48:38.692Z,1.53
2022-12-28T11:51:06.356Z,1.26
2022-12-28T11:53:33.587Z,1.24
2022-12-28T11:56:04.754Z,1.14
2022-12-28T11:58:31.476Z,1.30
2022-12-28T12:01:00.271Z,1.20
2022-12-28T12:03:58.079Z,1.44
2022-12-28T12:07:03.056Z,1.62
2022-12-28T12:09:33.898Z,1.99
2022-12-28T12:12:03.906Z,2.06
2022-12-28T12:14:35.954Z,1.92
2022-12-28T12:17:05.925Z,2.18
2022-12-28T12:19:36.143Z,1.92
2022-12-28T12:22:23.084Z,1.84
2022-12-28T12:25:07.576Z,1.88
2022-12-28T12:27:40.327Z,1.79
2022-12-28T12:30:14.656Z,1.71
2022-12-28T12:32:46.972Z,1.65
2022-12-28T12:35:20.649Z,1.47
2022-12-28T12:37:54.987Z,1.35
2022-12-28T12:40:50.876Z,1.66
2022-12-28T12:43:32.357Z,1.78
2022-12-28T12:46:05.054Z,1.80
2022-12-28T12:48:58.249Z,1.82
2022-12-28T12:51:36.255Z,1.72
2022-12-28T12:54:05.867Z,1.76
2022-12-28T12:57:14.539Z,1.85
2022-12-28T12:59:56.665Z,1.74
2022-12-28T13:02:35.674Z,1.76
2022-12-28T13:05:03.698Z,1.71
2022-12-28T13:07:30.893Z,1.56
2022-12-28T13:10:01.375Z,1.57
2022-12-28T13:12:28.226Z,1.51
2022-12-28T13:15:00.251Z,1.35
2022-12-28T13:17:27.945Z,1.31
2022-12-28T13:20:20.775Z,1.33
2022-12-28T13:22:49.172Z,1.29
2022-12-28T13:25:30.860Z,1.21
2022-12-28T13:27:59.416Z,1.13
2022-12-28T13:30:26.548Z,1.10
2022-12-28T13:33:00.887Z,1.08
2022-12-28T13:35:30.209Z,1.09
2022-12-28T13:38:10.153Z,1.09
2022-12-28T13:40:38.472Z,1.11
2022-12-28T13:43:26.700Z,1.10
2022-12-28T13:45:56.793Z,1.06
2022-12-28T13:48:23.842Z,0.99
2022-12-28T13:50:52.919Z,0.94
2022-12-28T13:53:22.928Z,0.98
2022-12-28T13:55:51.069Z,0.94
2022-12-28T13:58:22.671Z,0.97
2022-12-28T14:00:50.554Z,0.93
2022-12-28T14:03:18.537Z,0.88
2022-12-28T14:05:51.155Z,0.89
2022-12-28T14:08:18.378Z,0.81
2022-12-28T14:10:47.353Z,0.86
2022-12-28T14:13:14.683Z,0.87
2022-12-28T14:15:41.811Z,0.87
2022-12-28T14:18:08.862Z,0.88
2022-12-28T14:20:49.203Z,0.95
2022-12-28T14:23:43.035Z,0.98
2022-12-28T14:26:19.521Z,0.95
2022-12-28T14:28:51.541Z,1.00
2022-12-28T14:31:27.506Z,0.96
2022-12-28T14:34:01.415Z,1.00
2022-12-28T14:36:42.731Z,0.92
2022-12-28T14:39:24.870Z,0.86
2022-12-28T14:41:51.545Z,0.82
2022-12-28T14:44:25.976Z,0.81
2022-12-28T14:46:54.638Z,0.78
2022-12-28T14:49:31.947Z,0.74
2022-12-28T14:52:08.275Z,0.59
2022-12-28T14:54:55.677Z,0.30
2022-12-28T14:57:40.215Z,0.34
2022-12-28T15:00:25.931Z,0.39
2022-12-28T15:02:53.704Z,0.44
2022-12-28T15:05:43.861Z,0.42
2022-12-28T15:08:11.216Z,0.46
2022-12-28T15:10:50.466Z,0.45
2022-12-28T15:13:18.211Z,0.46
2022-12-28T15:15:44.985Z,0.44
2022-12-28T15:18:11.920Z,0.41
2022-12-28T15:20:39.328Z,0.41
2022-12-28T15:23:06.095Z,0.30
2022-12-28T15:25:34.715Z,0.26
2022-12-28T15:28:01.492Z,0.29
2022-12-28T15:30:29.412Z,0.19
2022-12-28T15:32:56.703Z,0.14
2022-12-28T15:35:23.529Z,0.07
2022-12-28T15:37:50.331Z,0.09
2022-12-28T15:40:17.196Z,0.00
2022-12-28T15:42:45.545Z,-0.15
2022-12-28T15:45:13.274Z,-0.26
2022-12-28T15:47:40.192Z,-0.22
2022-12-28T15:50:07.314Z,-0.22
2022-12-28T15:52:34.321Z,-0.32
2022-12-28T15:55:01.119Z,-0.54
2022-12-28T15:57:28.275Z,-0.47
2022-12-28T15:59:55.680Z,-0.50
2022-12-28T16:02:23.167Z,-0.57
2022-12-28T16:04:50.147Z,-0.48
2022-12-28T16:07:16.967Z,-0.37
2022-12-28T16:09:43.730Z,-0.26
2022-12-28T16:12:10.578Z,-0.33
2022-12-28T16:14:37.361Z,-0.51
2022-12-28T16:17:04.049Z,-0.53
2022-12-28T16:19:30.815Z,-0.59
2022-12-28T16:21:57.524Z,-0.69
2022-12-28T16:24:24.301Z,-0.66
2022-12-28T16:26:51.065Z,-0.62
2022-12-28T16:29:17.954Z,-0.91
2022-12-28T16:31:44.881Z,-0.85
2022-12-28T16:34:17.113Z,-0.83
2022-12-28T16:36:46.072Z,-0.90
2022-12-28T16:39:14.768Z,-0.83
2022-12-28T16:41:41.687Z,-0.92
2022-12-28T16:44:17.188Z,-0.86
2022-12-28T16:46:44.066Z,-0.95
2022-12-28T16:49:11.476Z,-0.97
2022-12-28T16:51:43.995Z,-1.11
2022-12-28T16:54:18.359Z,-1.18
2022-12-28T16:56:45.915Z,-1.10
2022-12-28T16:59:20.727Z,-1.33
2022-12-28T17:01:48.199Z,-1.33
2022-12-28T17:04:15.307Z,-1.23
2022-12-28T17:06:42.845Z,-1.34
2022-12-28T17:09:09.705Z,-1.57
2022-12-28T17:11:36.811Z,-1.55
2022-12-28T17:14:10.336Z,-1.61
2022-12-28T17:16:37.588Z,-1.58
2022-12-28T17:19:05.195Z,-1.47
2022-12-28T17:21:32.784Z,-1.57
2022-12-28T17:24:00.764Z,-1.42
2022-12-28T17:26:27.584Z,-1.42
2022-12-28T17:28:54.539Z,-1.58
2022-12-28T17:31:23.208Z,-1.60
2022-12-28T17:33:57.748Z,-1.60
2022-12-28T17:36:24.673Z,-1.51
2022-12-28T17:38:51.431Z,-1.35
2022-12-28T17:41:21.310Z,-1.56
2022-12-28T17:43:50.613Z,-1.49
2022-12-28T17:46:18.392Z,-1.43
2022-12-28T17:48:45.239Z,-1.46
2022-12-28T17:51:12.374Z,-1.46
2022-12-28T17:53:40.929Z,-1.42
2022-12-28T17:56:12.428Z,-1.45
2022-12-28T17:58:39.561Z,-1.53
2022-12-28T18:01:06.468Z,-1.61
2022-12-28T18:03:34.522Z,-1.69
2022-12-28T18:06:01.562Z,-1.87
2022-12-28T18:08:28.832Z,-1.89
2022-12-28T18:10:55.907Z,-2.04
2022-12-28T18:13:23.364Z,-2.00
2022-12-28T18:15:50.375Z,-1.97
2022-12-28T18:18:17.867Z,-1.90
2022-12-28T18:20:44.719Z,-1.92
2022-12-28T18:23:11.625Z,-2.06
2022-12-28T18:25:38.823Z,-2.24
2022-12-28T18:28:05.647Z,-2.07
2022-12-28T18:30:32.392Z,-2.14
2022-12-28T18:32:59.214Z,-2.35
2022-12-28T18:35:26.997Z,-2.28
2022-12-28T18:37:53.848Z,-2.27
2022-12-28T18:40:20.605Z,-2.14
2022-12-28T18:42:47.379Z,-2.23
2022-12-28T18:45:14.288Z,-2.24
2022-12-28T18:47:41.007Z,-2.19
2022-12-28T18:50:08.649Z,-2.24
2022-12-28T18:52:36.270Z,-2.19
2022-12-28T18:55:03.619Z,-2.15
2022-12-28T18:57:30.582Z,-2.10
2022-12-28T18:59:57.359Z,-2.02
2022-12-28T19:02:24.249Z,-2.09
2022-12-28T19:04:54.470Z,-2.15
2022-12-28T19:07:21.295Z,-2.04
2022-12-28T19:10:12.439Z,-1.93
2022-12-28T19:12:41.318Z,-2.04
2022-12-28T19:15:09.090Z,-2.22
2022-12-28T19:17:35.816Z,-2.23
2022-12-28T19:20:02.560Z,-2.06
2022-12-28T19:22:30.074Z,-2.10
2022-12-28T19:24:56.869Z,-2.17
2022-12-28T19:27:23.598Z,-1.92
2022-12-28T19:29:53.015Z,-2.04
2022-12-28T19:32:19.617Z,-2.15
2022-12-28T19:34:46.293Z,-2.17
2022-12-28T19:37:12.927Z,-2.19
2022-12-28T19:39:39.795Z,-2.20
2022-12-28T19:42:06.524Z,-2.14
2022-12-28T19:44:33.768Z,-2.26
2022-12-28T19:47:00.859Z,-2.31
2022-12-28T19:49:27.522Z,-2.34
2022-12-28T19:51:56.304Z,-2.23
2022-12-28T19:54:24.218Z,-2.24
2022-12-28T19:56:51.175Z,-2.16
2022-12-28T19:59:17.839Z,-2.14
2022-12-28T20:01:44.828Z,-2.22
2022-12-28T20:04:14.267Z,-2.15
2022-12-28T20:06:44.554Z,-2.28
2022-12-28T20:09:12.825Z,-2.28
2022-12-28T20:11:41.053Z,-2.28
2022-12-28T20:14:08.385Z,-2.28
2022-12-28T20:16:36.123Z,-2.25
2022-12-28T20:19:06.750Z,-2.43
2022-12-28T20:21:34.191Z,-2.47
2022-12-28T20:24:01.827Z,-2.47
2022-12-28T20:26:29.781Z,-2.15
2022-12-28T20:28:57.805Z,-2.20
2022-12-28T20:31:24.966Z,-2.31
2022-12-28T20:33:51.952Z,-2.35
2022-12-28T20:36:22.178Z,-2.38
2022-12-28T20:38:49.634Z,-2.30
2022-12-28T20:41:40.802Z,-2.18
2022-12-28T20:44:13.105Z,-2.33
2022-12-28T20:46:40.398Z,-2.43
2022-12-28T20:49:07.465Z,-2.37
2022-12-28T20:51:35.298Z,-2.35
2022-12-28T20:54:02.461Z,-2.20
2022-12-28T20:56:30.245Z,-2.13
2022-12-28T20:58:57.641Z,-2.11
2022-12-28T21:01:24.506Z,-2.10
2022-12-28T21:03:51.558Z,-2.11
2022-12-28T21:06:18.287Z,-2.22
2022-12-28T21:08:45.034Z,-2.37
2022-12-28T21:11:11.828Z,-2.41
2022-12-28T21:13:43.949Z,-2.43
2022-12-28T21:16:11.859Z,-2.31
2022-12-28T21:18:38.593Z,-2.28
2022-12-28T21:21:05.913Z,-2.51
2022-12-28T21:23:33.031Z,-2.47
2022-12-28T21:26:01.301Z,-2.42
2022-12-28T21:28:28.029Z,-2.28
2022-12-28T21:30:56.054Z,-2.18
2022-12-28T21:33:23.318Z,-2.16
2022-12-28T21:36:00.957Z,-2.10
2022-12-28T21:38:28.328Z,-2.14
2022-12-28T21:41:04.688Z,-2.33
2022-12-28T21:43:32.081Z,-2.36
2022-12-28T21:46:02.613Z,-2.46
2022-12-28T21:48:34.185Z,-2.43
2022-12-28T21:51:35.229Z,-2.52
2022-12-28T21:54:14.093Z,-2.70
2022-12-28T21:56:42.717Z,-2.50
2022-12-28T21:59:10.940Z,-2.44
2022-12-28T22:01:56.840Z,-2.57
2022-12-28T22:04:42.257Z,-2.68
2022-12-28T22:07:10.950Z,-2.72
2022-12-28T22:09:56.773Z,-2.75
2022-12-28T22:12:37.521Z,-2.67
2022-12-28T22:15:37.644Z,-2.66
2022-12-28T22:18:08.590Z,-2.69
2022-12-28T22:20:37.027Z,-2.71
2022-12-28T22:23:04.813Z,-2.69
2022-12-28T22:25:31.551Z,-2.82
2022-12-28T22:27:58.669Z,-2.78
2022-12-28T22:30:26.155Z,-2.74
2022-12-28T22:32:52.973Z,-2.82
2022-12-28T22:35:19.601Z,-2.78
2022-12-28T22:37:46.233Z,-2.78
2022-12-28T22:40:13.382Z,-2.78
2022-12-28T22:42:43.808Z,-2.74
2022-12-28T22:45:16.265Z,-2.78
2022-12-28T22:47:43.544Z,-2.74
2022-12-28T22:50:12.549Z,-2.69
2022-12-28T22:52:39.532Z,-2.78
2022-12-28T22:55:06.682Z,-2.76
2022-12-28T22:57:33.999Z,-2.76
2022-12-28T23:00:00.612Z,-2.80
2022-12-28T23:02:30.238Z,-2.64
2022-12-28T23:04:57.163Z,-2.62
2022-12-28T23:07:23.801Z,-2.69
2022-12-28T23:09:50.431Z,-2.73
2022-12-28T23:12:17.028Z,-2.78
2022-12-28T23:15:02.217Z,-2.71
2022-12-28T23:17:30.119Z,-2.69
2022-12-28T23:20:15.666Z,-2.81
2022-12-28T23:23:00.510Z,-2.72
2022-12-28T23:25:45.742Z,-2.70
2022-12-28T23:28:14.589Z,-2.81
2022-12-28T23:30:43.268Z,-2.88
2022-12-28T23:33:09.906Z,-2.90
2022-12-28T23:35:36.509Z,-2.99
2022-12-28T23:38:03.225Z,-2.94
2022-12-28T23:40:29.910Z,-2.98
2022-12-28T23:42:56.571Z,-2.66
2022-12-28T23:45:23.197Z,-2.83
2022-12-28T23:47:52.669Z,-2.97
2022-12-28T23:50:19.742Z,-2.86
2022-12-28T23:52:46.479Z,-2.89
2022-12-28T23:55:13.095Z,-2.85
2022-12-28T23:57:39.739Z,-2.88
